createdAt,value
2019-05-06T00:02:08.192Z,2.50
2019-05-06T00:04:40.000Z,2.33
2019-05-06T00:07:13.705Z,2.23
2019-05-06T00:09:45.433Z,2.20
2019-05-06T00:12:17.098Z,2.27
2019-05-06T00:14:48.758Z,2.23
2019-05-06T00:17:20.823Z,2.13
2019-05-06T00:19:53.995Z,2.40
2019-05-06T00:22:25.912Z,2.40
2019-05-06T00:25:05.394Z,2.60
2019-05-06T00:27:57.363Z,2.80
2019-05-06T00:30:29.080Z,2.83
2019-05-06T00:33:00.760Z,2.63
2019-05-06T00:35:34.254Z,2.00
2019-05-06T00:38:06.219Z,2.20
2019-05-06T00:40:39.746Z,2.90
2019-05-06T00:43:11.568Z,3.00
2019-05-06T00:45:44.313Z,2.57
2019-05-06T00:48:16.482Z,2.30
2019-05-06T00:50:48.196Z,3.53
2019-05-06T00:53:23.834Z,2.27
2019-05-06T00:55:55.785Z,2.57
2019-05-06T00:58:27.590Z,2.40
2019-05-06T01:00:59.471Z,2.53
2019-05-06T01:03:31.188Z,2.43
2019-05-06T01:06:03.867Z,2.40
2019-05-06T01:08:35.614Z,2.17
2019-05-06T01:11:08.217Z,2.43
2019-05-06T01:13:46.466Z,1.97
2019-05-06T01:16:19.998Z,1.97
2019-05-06T01:18:54.025Z,2.30
2019-05-06T01:21:25.222Z,2.83
2019-05-06T01:23:57.024Z,2.47
2019-05-06T01:26:28.932Z,2.80
2019-05-06T01:29:00.696Z,2.23
2019-05-06T01:31:42.240Z,2.53
2019-05-06T01:34:06.183Z,2.37
2019-05-06T01:36:38.353Z,2.37
2019-05-06T01:39:35.170Z,2.30
2019-05-06T01:42:31.629Z,2.40
2019-05-06T01:45:04.754Z,2.60
2019-05-06T01:47:36.650Z,2.57
2019-05-06T01:50:09.806Z,2.30
2019-05-06T01:52:41.482Z,2.70
2019-05-06T01:55:14.199Z,2.50
2019-05-06T01:57:45.986Z,2.67
2019-05-06T02:00:18.335Z,2.57
2019-05-06T02:02:50.066Z,2.37
2019-05-06T02:05:24.125Z,2.87
2019-05-06T02:07:55.410Z,2.43
2019-05-06T02:10:27.192Z,2.27
2019-05-06T02:12:58.663Z,2.43
2019-05-06T02:15:30.554Z,2.60
2019-05-06T02:18:04.087Z,2.60
2019-05-06T02:20:37.422Z,2.73
2019-05-06T02:23:15.353Z,2.93
2019-05-06T02:25:51.494Z,2.80
2019-05-06T02:28:23.642Z,2.90
2019-05-06T02:31:14.805Z,2.93
2019-05-06T02:33:55.458Z,2.70
2019-05-06T02:36:38.061Z,3.13
2019-05-06T02:39:09.917Z,2.57
2019-05-06T02:41:42.979Z,2.83
2019-05-06T02:44:15.064Z,3.47
2019-05-06T02:46:49.570Z,3.43
2019-05-06T02:49:44.295Z,2.87
2019-05-06T02:52:16.662Z,3.27
2019-05-06T02:54:48.562Z,3.57
2019-05-06T02:57:19.996Z,3.30
2019-05-06T02:59:55.280Z,3.00
2019-05-06T03:02:38.743Z,2.77
2019-05-06T03:04:58.641Z,3.27
2019-05-06T03:07:32.745Z,2.70
2019-05-06T03:10:04.267Z,2.03
2019-05-06T03:12:36.168Z,3.33
2019-05-06T03:15:08.063Z,2.50
2019-05-06T03:17:39.894Z,2.83
2019-05-06T03:20:17.648Z,3.17
2019-05-06T03:22:58.337Z,2.87
2019-05-06T03:25:34.414Z,2.70
2019-05-06T03:28:06.620Z,2.43
2019-05-06T03:30:38.460Z,2.93
2019-05-06T03:35:58.062Z,2.83
2019-05-06T03:38:17.161Z,2.90
2019-05-06T03:40:48.973Z,3.03
2019-05-06T03:43:23.052Z,2.33
2019-05-06T03:46:14.012Z,2.00
2019-05-06T03:48:46.398Z,2.70
2019-05-06T03:51:18.602Z,2.17
2019-05-06T03:53:54.317Z,1.60
2019-05-06T03:56:25.615Z,2.73
2019-05-06T03:58:59.120Z,2.13
2019-05-06T04:01:33.536Z,2.50
2019-05-06T04:04:05.115Z,2.03
2019-05-06T04:06:37.641Z,2.20
2019-05-06T04:09:09.571Z,2.00
2019-05-06T04:11:43.297Z,2.30
2019-05-06T04:14:16.799Z,2.33
2019-05-06T04:17:05.521Z,2.30
2019-05-06T04:19:45.251Z,2.47
2019-05-06T04:22:44.131Z,2.37
2019-05-06T04:25:38.951Z,3.10
2019-05-06T04:28:18.944Z,2.17
2019-05-06T04:30:50.799Z,5.40
2019-05-06T04:33:23.705Z,2.83
2019-05-06T04:35:55.769Z,2.90
2019-05-06T04:38:28.271Z,2.50
2019-05-06T04:41:02.750Z,2.60
2019-05-06T04:43:34.296Z,3.10
2019-05-06T04:46:06.679Z,2.70
2019-05-06T04:48:38.698Z,2.67
2019-05-06T04:51:13.595Z,2.60
2019-05-06T04:53:45.457Z,2.10
2019-05-06T04:56:17.361Z,2.30
2019-05-06T04:58:49.517Z,3.03
2019-05-06T05:01:23.142Z,2.97
2019-05-06T05:03:56.284Z,2.90
2019-05-06T05:06:28.641Z,2.87
2019-05-06T05:09:02.835Z,3.90
2019-05-06T05:11:48.105Z,2.90
2019-05-06T05:14:28.417Z,3.57
2019-05-06T05:17:22.396Z,3.30
2019-05-06T05:19:54.573Z,3.20
2019-05-06T05:22:26.875Z,3.30
2019-05-06T05:24:59.772Z,20.53
2019-05-06T05:27:32.924Z,3.17
2019-05-06T05:30:05.539Z,3.27
2019-05-06T05:32:37.610Z,3.53
2019-05-06T05:35:12.773Z,3.23
2019-05-06T05:37:44.816Z,3.63
2019-05-06T05:40:17.014Z,3.33
2019-05-06T05:43:08.633Z,2.70
2019-05-06T05:45:42.421Z,2.90
2019-05-06T05:48:25.558Z,2.20
2019-05-06T05:50:57.853Z,3.80
2019-05-06T05:53:30.259Z,2.60
2019-05-06T05:56:02.749Z,3.10
2019-05-06T05:58:34.919Z,2.60
2019-05-06T06:01:06.898Z,2.70
2019-05-06T06:03:38.899Z,2.00
2019-05-06T06:06:12.612Z,2.70
2019-05-06T06:08:45.240Z,2.93
2019-05-06T06:11:26.741Z,3.63
2019-05-06T06:14:02.993Z,2.30
2019-05-06T06:16:49.896Z,2.50
2019-05-06T06:19:43.818Z,2.20
2019-05-06T06:22:22.335Z,2.10
2019-05-06T06:24:54.668Z,2.27
2019-05-06T06:27:28.762Z,2.57
2019-05-06T06:30:02.413Z,1.87
2019-05-06T06:32:35.054Z,3.03
2019-05-06T06:35:20.058Z,3.10
2019-05-06T06:38:07.893Z,2.10
2019-05-06T06:40:40.102Z,2.10
2019-05-06T06:43:22.906Z,1.60
2019-05-06T06:45:55.842Z,1.90
2019-05-06T06:48:28.650Z,2.13
2019-05-06T06:51:03.263Z,2.43
2019-05-06T06:53:35.077Z,2.40
2019-05-06T06:56:32.955Z,1.97
2019-05-06T06:59:32.214Z,1.43
2019-05-06T07:02:25.644Z,1.87
2019-05-06T07:05:33.052Z,1.90
2019-05-06T07:08:04.451Z,1.60
2019-05-06T07:10:47.338Z,2.93
2019-05-06T07:13:19.685Z,2.40
2019-05-06T07:15:52.115Z,2.53
2019-05-06T07:18:24.582Z,1.83
2019-05-06T07:21:18.794Z,2.27
2019-05-06T07:23:52.874Z,3.47
2019-05-06T07:26:27.879Z,2.30
2019-05-06T07:29:03.925Z,2.00
2019-05-06T07:31:33.574Z,1.87
2019-05-06T07:34:05.596Z,2.47
2019-05-06T07:36:37.356Z,1.87
2019-05-06T07:39:10.027Z,2.30
2019-05-06T07:41:55.628Z,1.90
2019-05-06T07:44:52.734Z,2.20
2019-05-06T07:47:39.660Z,5.13
2019-05-06T07:50:13.132Z,1.93
2019-05-06T07:53:06.262Z,1.67
2019-05-06T07:55:42.170Z,2.23
2019-05-06T07:58:14.072Z,1.80
2019-05-06T08:00:45.766Z,2.13
2019-05-06T08:03:18.001Z,2.77
2019-05-06T08:05:55.789Z,2.10
2019-05-06T08:08:23.640Z,2.13
2019-05-06T08:10:55.638Z,2.23
2019-05-06T08:13:27.640Z,2.00
2019-05-06T08:15:59.365Z,4.13
2019-05-06T08:18:33.032Z,1.97
2019-05-06T08:21:06.893Z,1.97
2019-05-06T08:23:47.390Z,2.13
2019-05-06T08:26:19.482Z,3.03
2019-05-06T08:28:52.578Z,1.93
2019-05-06T08:31:25.316Z,3.53
2019-05-06T08:33:57.226Z,2.33
2019-05-06T08:36:35.411Z,2.00
2019-05-06T08:39:07.872Z,2.30
2019-05-06T08:41:42.201Z,2.03
2019-05-06T08:44:13.812Z,3.50
2019-05-06T08:46:46.282Z,2.43
2019-05-06T08:49:18.464Z,2.77
2019-05-06T08:52:02.392Z,2.13
2019-05-06T08:54:48.556Z,2.30
2019-05-06T08:57:22.773Z,2.80
2019-05-06T08:59:55.570Z,2.07
2019-05-06T09:02:29.088Z,2.00
2019-05-06T09:05:02.956Z,2.10
2019-05-06T09:07:35.368Z,2.67
2019-05-06T09:10:07.465Z,1.70
2019-05-06T09:12:39.535Z,2.27
2019-05-06T09:15:12.572Z,4.43
2019-05-06T09:17:44.732Z,2.03
2019-05-06T09:20:16.860Z,1.83
2019-05-06T09:22:48.855Z,1.60
2019-05-06T09:25:22.997Z,2.10
2019-05-06T09:28:05.990Z,1.63
2019-05-06T09:30:49.082Z,1.40
2019-05-06T09:33:27.035Z,1.87
2019-05-06T09:35:59.148Z,1.63
2019-05-06T09:38:32.147Z,2.27
2019-05-06T09:41:05.009Z,2.63
2019-05-06T09:43:37.735Z,1.83
2019-05-06T09:46:09.725Z,1.97
2019-05-06T09:49:22.733Z,2.20
2019-05-06T09:51:54.214Z,2.70
2019-05-06T09:54:43.027Z,2.00
2019-05-06T09:57:22.105Z,2.40
2019-05-06T09:59:55.920Z,1.60
2019-05-06T10:02:28.473Z,1.90
2019-05-06T10:05:03.336Z,1.70
2019-05-06T10:07:34.476Z,2.00
2019-05-06T10:10:06.872Z,1.93
2019-05-06T10:12:38.870Z,1.70
2019-05-06T10:15:12.736Z,1.70
2019-05-06T10:17:46.718Z,1.33
2019-05-06T10:20:22.330Z,1.40
2019-05-06T10:22:54.002Z,1.80
2019-05-06T10:25:26.006Z,1.83
2019-05-06T10:27:59.460Z,1.30
2019-05-06T10:30:33.192Z,1.10
2019-05-06T10:33:08.503Z,1.30
2019-05-06T10:35:42.676Z,1.73
2019-05-06T10:38:44.570Z,1.57
2019-05-06T10:41:22.365Z,1.40
2019-05-06T10:44:22.647Z,2.43
2019-05-06T10:46:54.950Z,2.30
2019-05-06T10:49:27.556Z,2.30
2019-05-06T10:52:06.990Z,1.37
2019-05-06T10:54:39.154Z,1.57
2019-05-06T10:57:36.898Z,1.77
2019-05-06T11:00:12.295Z,1.67
2019-05-06T11:02:58.157Z,1.60
2019-05-06T11:05:32.396Z,2.10
2019-05-06T11:08:03.726Z,2.03
2019-05-06T11:10:41.236Z,1.50
2019-05-06T11:13:09.394Z,2.73
2019-05-06T11:15:43.449Z,1.60
2019-05-06T11:18:15.690Z,1.57
2019-05-06T11:20:47.619Z,1.20
2019-05-06T11:23:21.815Z,2.03
2019-05-06T11:25:52.978Z,1.20
2019-05-06T11:28:44.924Z,1.70
2019-05-06T11:31:43.095Z,1.77
2019-05-06T11:34:27.161Z,1.17
2019-05-06T11:37:17.677Z,1.20
2019-05-06T11:39:49.803Z,1.40
2019-05-06T11:42:31.728Z,1.40
2019-05-06T11:44:55.433Z,1.50
2019-05-06T11:47:27.421Z,1.83
2019-05-06T11:50:02.495Z,2.07
2019-05-06T11:52:34.686Z,1.20
2019-05-06T11:55:07.251Z,1.50
2019-05-06T11:57:44.406Z,1.30
2019-05-06T12:00:20.151Z,1.30
2019-05-06T12:02:53.301Z,1.17
2019-05-06T12:05:25.564Z,1.30
2019-05-06T12:08:07.252Z,1.83
2019-05-06T12:10:33.095Z,2.20
2019-05-06T12:13:05.579Z,2.20
2019-05-06T12:15:37.812Z,1.30
2019-05-06T12:18:12.388Z,1.63
2019-05-06T12:20:43.955Z,1.20
2019-05-06T12:23:16.623Z,2.53
2019-05-06T12:25:48.614Z,1.60
2019-05-06T12:28:20.867Z,1.90
2019-05-06T12:30:52.907Z,1.50
2019-05-06T12:33:39.641Z,1.20
2019-05-06T12:36:21.111Z,1.80
2019-05-06T12:39:15.818Z,1.40
2019-05-06T12:41:58.575Z,2.73
2019-05-06T12:44:32.259Z,1.70
2019-05-06T12:47:32.826Z,2.10
2019-05-06T12:50:06.134Z,2.10
2019-05-06T12:52:38.199Z,1.60
2019-05-06T12:55:18.351Z,3.50
2019-05-06T12:57:44.626Z,1.50
2019-05-06T13:00:17.285Z,1.27
2019-05-06T13:02:49.848Z,1.40
2019-05-06T13:05:21.952Z,2.10
2019-05-06T13:07:54.260Z,3.13
2019-05-06T13:10:26.659Z,1.10
2019-05-06T13:13:06.732Z,3.03
2019-05-06T13:15:39.274Z,1.47
2019-05-06T13:18:11.371Z,1.70
2019-05-06T13:20:50.073Z,1.30
2019-05-06T13:23:45.824Z,1.20
2019-05-06T13:26:18.231Z,1.63
2019-05-06T13:28:55.464Z,1.70
2019-05-06T13:31:27.715Z,1.90
2019-05-06T13:34:10.287Z,2.03
2019-05-06T13:36:43.011Z,1.30
2019-05-06T13:39:15.564Z,1.60
2019-05-06T13:41:47.497Z,1.63
2019-05-06T13:44:22.527Z,1.27
2019-05-06T13:46:55.536Z,1.93
2019-05-06T13:49:54.488Z,2.20
2019-05-06T13:52:29.732Z,1.67
2019-05-06T13:55:02.567Z,1.53
2019-05-06T13:57:35.228Z,1.17
2019-05-06T14:00:08.765Z,1.80
2019-05-06T14:02:48.061Z,1.43
2019-05-06T14:05:19.982Z,1.27
2019-05-06T14:07:52.957Z,1.53
2019-05-06T14:10:25.120Z,1.17
2019-05-06T14:12:57.154Z,1.10
2019-05-06T14:15:29.303Z,3.30
2019-05-06T14:18:02.658Z,1.10
2019-05-06T14:20:35.060Z,1.17
2019-05-06T14:23:07.290Z,0.90
2019-05-06T14:26:03.943Z,2.10
2019-05-06T14:28:53.235Z,1.10
2019-05-06T14:31:32.679Z,1.80
2019-05-06T14:34:04.455Z,1.60
2019-05-06T14:36:36.375Z,1.30
2019-05-06T14:39:15.399Z,4.20
2019-05-06T14:41:53.465Z,1.50
2019-05-06T14:44:25.548Z,1.80
2019-05-06T14:47:17.951Z,1.20
2019-05-06T14:49:52.774Z,1.70
2019-05-06T14:52:24.363Z,1.10
2019-05-06T14:55:12.617Z,2.43
2019-05-06T14:57:44.801Z,1.17
2019-05-06T15:00:19.348Z,1.00
2019-05-06T15:02:53.264Z,1.80
2019-05-06T15:05:25.658Z,1.57
2019-05-06T15:07:57.755Z,2.13
2019-05-06T15:10:32.127Z,1.53
2019-05-06T15:13:03.894Z,2.10
2019-05-06T15:15:37.046Z,2.00
2019-05-06T15:18:09.376Z,3.03
2019-05-06T15:20:42.489Z,1.30
2019-05-06T15:23:15.038Z,2.20
2019-05-06T15:25:47.227Z,2.30
2019-05-06T15:28:19.446Z,1.50
2019-05-06T15:31:03.296Z,2.33
2019-05-06T15:33:41.782Z,1.90
2019-05-06T15:36:22.323Z,1.20
2019-05-06T15:38:54.564Z,1.97
2019-05-06T15:41:26.391Z,2.57
2019-05-06T15:43:58.474Z,1.80
2019-05-06T15:46:32.328Z,1.30
2019-05-06T15:49:05.492Z,1.60
2019-05-06T15:51:37.663Z,1.60
2019-05-06T15:54:09.720Z,2.17
2019-05-06T15:56:42.374Z,1.70
2019-05-06T15:59:15.830Z,3.40
2019-05-06T16:01:48.077Z,1.80
2019-05-06T16:04:22.884Z,1.47
2019-05-06T16:07:00.021Z,1.90
2019-05-06T16:09:33.033Z,1.87
2019-05-06T16:12:04.974Z,2.93
2019-05-06T16:14:36.844Z,1.93
2019-05-06T16:17:09.130Z,2.67
2019-05-06T16:19:42.750Z,1.40
2019-05-06T16:22:15.146Z,1.30
2019-05-06T16:24:53.033Z,2.23
2019-05-06T16:27:25.235Z,1.57
2019-05-06T16:29:57.398Z,2.40
2019-05-06T16:32:33.100Z,1.87
2019-05-06T16:35:04.927Z,1.97
2019-05-06T16:37:37.271Z,2.10
2019-05-06T16:40:12.210Z,1.70
2019-05-06T16:42:46.025Z,2.50
2019-05-06T16:45:18.859Z,2.07
2019-05-06T16:47:52.385Z,1.90
2019-05-06T16:50:25.430Z,1.90
2019-05-06T16:52:57.439Z,2.10
2019-05-06T16:55:49.161Z,4.63
2019-05-06T16:58:34.266Z,1.90
2019-05-06T17:01:06.657Z,2.40
2019-05-06T17:03:59.688Z,2.20
2019-05-06T17:06:36.577Z,1.87
2019-05-06T17:09:18.358Z,2.23
2019-05-06T17:11:44.678Z,3.10
2019-05-06T17:14:17.104Z,2.20
2019-05-06T17:16:49.216Z,2.23
2019-05-06T17:19:23.016Z,3.03
2019-05-06T17:21:55.229Z,1.63
2019-05-06T17:24:27.728Z,2.50
2019-05-06T17:26:59.830Z,2.43
2019-05-06T17:30:01.938Z,3.00
2019-05-06T17:32:38.266Z,2.40
2019-05-06T17:35:12.661Z,3.13
2019-05-06T17:38:02.262Z,1.87
2019-05-06T17:40:34.744Z,2.03
2019-05-06T17:43:06.947Z,2.10
2019-05-06T17:46:01.784Z,2.80
2019-05-06T17:48:47.184Z,3.43
2019-05-06T17:51:42.696Z,4.17
2019-05-06T17:54:14.932Z,3.00
2019-05-06T17:56:47.434Z,2.23
2019-05-06T17:59:20.068Z,2.80
2019-05-06T18:01:53.710Z,1.80
2019-05-06T18:04:25.936Z,3.10
2019-05-06T18:06:57.940Z,2.40
2019-05-06T18:09:30.346Z,3.20
2019-05-06T18:12:03.117Z,1.47
2019-05-06T18:14:35.396Z,2.60
2019-05-06T18:17:07.411Z,2.93
2019-05-06T18:19:39.471Z,2.23
2019-05-06T18:22:13.145Z,2.40
2019-05-06T18:24:46.298Z,2.90
2019-05-06T18:27:18.085Z,4.00
2019-05-06T18:29:50.271Z,3.53
2019-05-06T18:32:23.413Z,2.57
2019-05-06T18:34:55.619Z,2.63
2019-05-06T18:37:27.863Z,2.87
2019-05-06T18:39:59.966Z,2.70
2019-05-06T18:42:33.014Z,2.47
2019-05-06T18:45:06.086Z,2.20
2019-05-06T18:47:38.256Z,2.43
2019-05-06T18:50:12.378Z,4.20
2019-05-06T18:52:44.114Z,3.00
2019-05-06T18:55:16.546Z,3.10
2019-05-06T18:57:49.056Z,3.60
2019-05-06T19:00:22.455Z,3.53
2019-05-06T19:02:54.832Z,2.40
2019-05-06T19:05:33.047Z,2.60
2019-05-06T19:08:12.449Z,3.83
2019-05-06T19:10:44.591Z,3.20
2019-05-06T19:13:16.537Z,2.80
2019-05-06T19:15:48.702Z,3.73
2019-05-06T19:18:22.419Z,3.00
2019-05-06T19:20:54.580Z,3.07
2019-05-06T19:23:26.544Z,3.93
2019-05-06T19:25:59.829Z,3.20
2019-05-06T19:28:32.785Z,3.60
2019-05-06T19:31:05.222Z,4.07
2019-05-06T19:33:37.168Z,3.60
2019-05-06T19:36:09.159Z,3.17
2019-05-06T19:38:42.369Z,3.23
2019-05-06T19:41:14.556Z,3.60
2019-05-06T19:43:46.742Z,3.67
2019-05-06T19:46:18.620Z,3.57
2019-05-06T19:48:52.272Z,4.13
2019-05-06T19:51:24.112Z,3.40
2019-05-06T19:53:56.605Z,3.80
2019-05-06T19:56:28.948Z,5.87
2019-05-06T19:59:02.077Z,3.53
2019-05-06T20:01:34.460Z,3.70
2019-05-06T20:04:06.674Z,3.97
2019-05-06T20:06:48.505Z,3.47
2019-05-06T20:09:47.639Z,3.73
2019-05-06T20:12:33.726Z,4.00
2019-05-06T20:15:29.850Z,4.33
2019-05-06T20:18:03.092Z,4.30
2019-05-06T20:20:35.434Z,4.43
2019-05-06T20:23:07.436Z,5.17
2019-05-06T20:25:39.495Z,5.63
2019-05-06T20:28:13.120Z,4.63
2019-05-06T20:30:45.488Z,4.73
2019-05-06T20:33:17.556Z,5.07
2019-05-06T20:35:49.646Z,4.17
2019-05-06T20:38:23.263Z,4.73
2019-05-06T20:40:56.214Z,6.00
2019-05-06T20:43:29.648Z,5.17
2019-05-06T20:46:03.632Z,5.80
2019-05-06T20:48:35.704Z,5.97
2019-05-06T20:51:08.186Z,6.33
2019-05-06T20:53:40.016Z,7.50
2019-05-06T20:56:12.363Z,6.30
2019-05-06T20:58:44.724Z,5.70
2019-05-06T21:01:16.648Z,7.30
2019-05-06T21:03:48.575Z,4.60
2019-05-06T21:06:22.482Z,5.73
2019-05-06T21:08:54.853Z,5.60
2019-05-06T21:11:29.266Z,5.00
2019-05-06T21:14:02.212Z,4.90
2019-05-06T21:16:34.722Z,4.57
2019-05-06T21:19:06.663Z,4.47
2019-05-06T21:21:38.662Z,5.00
2019-05-06T21:24:12.807Z,4.37
2019-05-06T21:26:46.488Z,3.97
2019-05-06T21:29:17.646Z,4.40
2019-05-06T21:31:49.429Z,4.73
2019-05-06T21:34:22.357Z,7.80
2019-05-06T21:36:54.418Z,3.70
2019-05-06T21:39:26.184Z,5.17
2019-05-06T21:41:58.159Z,3.83
2019-05-06T21:44:32.374Z,5.27
2019-05-06T21:47:04.194Z,4.43
2019-05-06T21:49:36.461Z,4.10
2019-05-06T21:52:08.388Z,4.70
2019-05-06T21:54:40.347Z,4.30
2019-05-06T21:57:12.333Z,4.90
2019-05-06T21:59:44.270Z,5.83
2019-05-06T22:02:17.846Z,4.30
2019-05-06T22:04:49.904Z,4.93
2019-05-06T22:07:22.970Z,5.13
2019-05-06T22:09:54.938Z,5.17
2019-05-06T22:12:27.332Z,5.00
2019-05-06T22:14:59.307Z,5.43
2019-05-06T22:17:32.028Z,5.50
2019-05-06T22:20:04.288Z,5.03
2019-05-06T22:22:36.172Z,4.73
2019-05-06T22:25:08.466Z,5.30
2019-05-06T22:27:44.220Z,5.63
2019-05-06T22:30:14.084Z,5.50
2019-05-06T22:32:46.276Z,4.97
2019-05-06T22:35:18.680Z,4.97
2019-05-06T22:37:52.975Z,5.77
2019-05-06T22:40:24.394Z,5.30
2019-05-06T22:42:56.208Z,4.90
2019-05-06T22:45:27.860Z,6.10
2019-05-06T22:47:59.786Z,5.70
2019-05-06T22:50:32.967Z,5.37
2019-05-06T22:53:10.150Z,6.50
2019-05-06T22:55:42.779Z,6.30
2019-05-06T22:58:14.644Z,5.20
2019-05-06T23:00:53.548Z,6.70
2019-05-06T23:03:26.060Z,44.17
2019-05-06T23:05:57.896Z,28.33
2019-05-06T23:08:29.760Z,12.57
2019-05-06T23:11:01.536Z,7.40
2019-05-06T23:13:33.394Z,6.50
2019-05-06T23:16:05.395Z,5.37
2019-05-06T23:18:37.302Z,7.23
2019-05-06T23:21:09.410Z,7.03
2019-05-06T23:23:43.400Z,11.93
2019-05-06T23:26:22.759Z,5.37
2019-05-06T23:28:54.632Z,5.93
2019-05-06T23:31:26.534Z,6.07
2019-05-06T23:33:58.567Z,6.40
2019-05-06T23:36:44.297Z,6.27
2019-05-06T23:40:00.202Z,7.07
2019-05-06T23:43:07.686Z,6.53
2019-05-06T23:46:14.819Z,5.87
2019-05-06T23:49:22.330Z,6.47
2019-05-06T23:52:29.384Z,6.03
2019-05-06T23:55:36.342Z,5.47
2019-05-06T23:58:06.554Z,6.57
